createdAt,value
2023-07-25T00:04:26.282Z,10.32
2023-07-25T00:09:28.411Z,11.02
2023-07-25T00:14:30.579Z,8.85
2023-07-25T00:19:32.726Z,10.15
2023-07-25T00:24:34.849Z,18.17
2023-07-25T00:29:37.061Z,10.68
2023-07-25T00:34:39.198Z,10.27
2023-07-25T00:39:41.383Z,17.77
2023-07-25T00:44:43.470Z,15.32
2023-07-25T00:49:46.821Z,11.13
2023-07-25T00:54:51.828Z,10.73
2023-07-25T00:59:54.043Z,12.63
2023-07-25T01:04:56.484Z,10.30
2023-07-25T01:09:58.788Z,13.07
2023-07-25T01:15:00.997Z,11.55
2023-07-25T01:20:09.439Z,12.10
2023-07-25T01:25:11.995Z,16.08
2023-07-25T01:30:14.086Z,14.63
2023-07-25T01:35:16.229Z,18.02
2023-07-25T01:40:18.499Z,12.48
2023-07-25T01:45:21.729Z,13.52
2023-07-25T01:50:24.132Z,12.95
2023-07-25T01:55:26.305Z,16.40
2023-07-25T02:00:29.495Z,16.67
2023-07-25T02:05:31.655Z,16.27
2023-07-25T02:10:34.047Z,21.52
2023-07-25T02:15:37.640Z,18.25
2023-07-25T02:20:39.951Z,22.83
2023-07-25T02:25:42.970Z,26.58
2023-07-25T02:30:47.464Z,25.65
2023-07-25T02:35:49.714Z,38.78
2023-07-25T02:40:51.917Z,30.40
2023-07-25T02:45:54.291Z,39.42
2023-07-25T02:50:56.469Z,16.10
2023-07-25T02:55:58.555Z,11.93
2023-07-25T03:01:01.294Z,9.90
2023-07-25T03:06:03.576Z,9.20
2023-07-25T03:11:05.864Z,7.20
2023-07-25T03:16:08.526Z,4.63
2023-07-25T03:21:10.769Z,5.03
2023-07-25T03:26:12.987Z,8.10
2023-07-25T03:31:15.134Z,3.90
2023-07-25T03:36:17.242Z,4.55
2023-07-25T03:41:19.380Z,3.95
2023-07-25T03:46:21.614Z,4.03
2023-07-25T03:51:24.713Z,6.65
2023-07-25T03:56:26.913Z,4.05
2023-07-25T04:01:29.552Z,5.85
2023-07-25T04:06:32.070Z,8.05
2023-07-25T04:11:34.472Z,6.70
2023-07-25T04:16:36.793Z,7.28
2023-07-25T04:21:39.137Z,10.07
2023-07-25T04:26:41.335Z,11.50
2023-07-25T04:31:43.665Z,8.27
2023-07-25T04:36:45.928Z,8.43
2023-07-25T04:41:48.086Z,9.60
2023-07-25T04:46:50.307Z,7.82
2023-07-25T04:51:52.542Z,8.15
2023-07-25T04:56:54.797Z,8.10
2023-07-25T05:01:57.026Z,10.93
2023-07-25T05:06:59.363Z,7.30
2023-07-25T05:12:01.611Z,6.53
2023-07-25T05:17:03.993Z,8.77
2023-07-25T05:22:06.256Z,8.05
2023-07-25T05:27:08.487Z,8.18
2023-07-25T05:32:10.743Z,7.38
2023-07-25T05:37:12.885Z,9.73
2023-07-25T05:42:15.188Z,7.15
2023-07-25T05:47:17.300Z,9.43
2023-07-25T05:52:19.431Z,7.45
2023-07-25T05:57:21.728Z,7.00
2023-07-25T06:02:23.897Z,7.20
2023-07-25T06:07:26.019Z,8.35
2023-07-25T06:12:28.280Z,6.28
2023-07-25T06:17:30.856Z,9.73
2023-07-25T06:22:33.004Z,6.55
2023-07-25T06:27:35.401Z,7.43
2023-07-25T06:32:39.112Z,8.07
2023-07-25T06:37:41.255Z,5.85
2023-07-25T06:42:43.559Z,6.00
2023-07-25T06:47:48.193Z,6.57
2023-07-25T06:52:50.493Z,5.00
2023-07-25T06:57:52.740Z,5.10
2023-07-25T07:02:56.168Z,6.07
2023-07-25T07:07:59.626Z,4.60
2023-07-25T07:13:01.771Z,4.43
2023-07-25T07:18:04.042Z,3.22
2023-07-25T07:23:06.667Z,3.42
2023-07-25T07:28:08.869Z,4.15
2023-07-25T07:33:11.077Z,4.50
2023-07-25T07:38:13.563Z,3.63
2023-07-25T07:43:16.945Z,3.05
2023-07-25T07:48:19.106Z,2.97
2023-07-25T07:53:21.351Z,4.03
2023-07-25T07:58:23.591Z,6.93
2023-07-25T08:03:25.789Z,4.15
2023-07-25T08:08:27.896Z,4.00
2023-07-25T08:13:30.199Z,4.38
2023-07-25T08:18:32.444Z,3.53
2023-07-25T08:23:34.681Z,2.00
2023-07-25T08:28:37.012Z,2.75
2023-07-25T08:33:39.333Z,3.67
2023-07-25T08:38:43.014Z,3.55
2023-07-25T08:43:45.477Z,3.03
2023-07-25T08:48:49.866Z,1.98
2023-07-25T08:54:03.928Z,7.13
2023-07-25T08:59:06.764Z,1.67
2023-07-25T09:04:10.460Z,2.72
2023-07-25T09:09:12.877Z,2.15
2023-07-25T09:14:15.264Z,0.90
2023-07-25T09:19:17.783Z,2.13
2023-07-25T09:24:20.063Z,1.52
2023-07-25T09:29:28.081Z,3.20
2023-07-25T09:34:30.343Z,2.10
2023-07-25T09:39:34.992Z,3.83
2023-07-25T09:44:37.114Z,3.15
2023-07-25T09:49:39.272Z,2.00
2023-07-25T09:54:42.040Z,3.88
2023-07-25T09:59:44.947Z,2.65
2023-07-25T10:04:48.417Z,2.00
2023-07-25T10:09:51.923Z,2.75
2023-07-25T10:14:56.414Z,1.83
2023-07-25T10:19:58.582Z,2.22
2023-07-25T10:25:00.853Z,3.45
2023-07-25T10:30:04.112Z,6.07
2023-07-25T10:35:08.821Z,4.45
2023-07-25T10:40:18.025Z,2.50
2023-07-25T10:45:30.623Z,2.47
2023-07-25T10:50:53.243Z,2.50
2023-07-25T10:56:07.956Z,3.70
2023-07-25T11:01:36.211Z,3.80
2023-07-25T11:06:39.824Z,2.65
2023-07-25T11:11:46.594Z,4.35
2023-07-25T11:16:51.927Z,5.53
2023-07-25T11:21:54.245Z,2.70
2023-07-25T11:26:56.363Z,3.05
2023-07-25T11:32:02.906Z,3.38
2023-07-25T11:37:10.875Z,3.05
2023-07-25T11:42:13.084Z,4.07
2023-07-25T11:47:15.448Z,3.25
2023-07-25T11:52:18.293Z,3.20
2023-07-25T11:57:20.508Z,3.08
2023-07-25T12:02:25.893Z,2.78
2023-07-25T12:07:28.157Z,3.85
2023-07-25T12:12:30.453Z,3.67
2023-07-25T12:17:43.025Z,2.70
2023-07-25T12:22:48.886Z,4.15
2023-07-25T12:27:53.726Z,4.00
2023-07-25T12:32:56.118Z,3.67
2023-07-25T12:37:58.876Z,2.88
2023-07-25T12:43:01.058Z,3.05
2023-07-25T12:48:04.956Z,5.68
2023-07-25T12:53:07.781Z,3.45
2023-07-25T12:58:10.007Z,5.03
2023-07-25T13:03:13.762Z,4.75
2023-07-25T13:08:16.565Z,3.95
2023-07-25T13:13:18.692Z,5.15
2023-07-25T13:18:20.786Z,6.88
2023-07-25T13:23:22.973Z,5.97
2023-07-25T13:28:26.173Z,4.38
2023-07-25T13:33:28.997Z,4.45
2023-07-25T13:38:31.218Z,5.60
2023-07-25T13:43:33.392Z,5.38
2023-07-25T13:48:35.560Z,5.85
2023-07-25T13:53:37.648Z,5.65
2023-07-25T13:58:39.929Z,5.18
2023-07-25T14:03:42.184Z,5.03
2023-07-25T14:08:44.698Z,6.80
2023-07-25T14:13:47.202Z,5.68
2023-07-25T14:18:49.357Z,7.45
2023-07-25T14:23:51.630Z,8.70
2023-07-25T14:28:53.827Z,5.18
2023-07-25T14:33:57.200Z,5.28
2023-07-25T14:38:59.426Z,6.55
2023-07-25T14:44:01.591Z,6.13
2023-07-25T14:49:03.909Z,5.35
2023-07-25T14:54:06.041Z,7.47
2023-07-25T14:59:08.225Z,5.97
2023-07-25T15:04:10.546Z,5.22
2023-07-25T15:09:12.817Z,5.68
2023-07-25T15:14:15.028Z,7.57
2023-07-25T15:19:17.244Z,9.68
2023-07-25T15:24:19.540Z,9.20
2023-07-25T15:29:21.880Z,7.07
2023-07-25T15:34:24.540Z,10.35
2023-07-25T15:39:26.794Z,6.97
2023-07-25T15:44:29.367Z,8.13
2023-07-25T15:49:31.515Z,8.02
2023-07-25T15:54:33.799Z,5.72
2023-07-25T15:59:36.101Z,5.60
2023-07-25T16:04:38.475Z,8.23
2023-07-25T16:09:43.505Z,10.70
2023-07-25T16:14:46.761Z,7.22
2023-07-25T16:19:48.841Z,7.47
2023-07-25T16:24:51.094Z,12.40
2023-07-25T16:29:53.370Z,8.73
2023-07-25T16:34:55.657Z,9.13
2023-07-25T16:39:57.840Z,9.35
2023-07-25T16:45:01.418Z,10.63
2023-07-25T16:50:07.132Z,8.65
2023-07-25T16:55:11.044Z,9.65
2023-07-25T17:00:13.636Z,8.65
2023-07-25T17:05:15.834Z,11.63
2023-07-25T17:10:18.064Z,10.13
2023-07-25T17:15:20.384Z,9.77
2023-07-25T17:20:26.065Z,9.90
2023-07-25T17:25:28.350Z,8.93
2023-07-25T17:30:30.493Z,7.78
2023-07-25T17:35:38.104Z,11.95
2023-07-25T17:40:43.884Z,9.38
2023-07-25T17:45:46.248Z,10.90
2023-07-25T17:50:51.622Z,10.63
2023-07-25T17:55:55.921Z,10.15
2023-07-25T18:00:58.436Z,12.25
2023-07-25T18:06:00.628Z,14.65
2023-07-25T18:11:02.853Z,10.15
2023-07-25T18:16:05.218Z,10.90
2023-07-25T18:21:10.098Z,9.85
2023-07-25T18:26:12.495Z,7.78
2023-07-25T18:31:14.653Z,9.23
2023-07-25T18:36:16.907Z,10.48
2023-07-25T18:41:19.099Z,13.93
2023-07-25T18:46:21.261Z,8.30
2023-07-25T18:51:23.552Z,11.30
2023-07-25T18:56:25.717Z,30.52
2023-07-25T19:01:27.928Z,12.57
2023-07-25T19:06:32.102Z,8.82
2023-07-25T19:11:34.598Z,11.27
2023-07-25T19:16:37.175Z,11.25
2023-07-25T19:21:40.623Z,11.37
2023-07-25T19:26:42.818Z,11.38
2023-07-25T19:31:45.099Z,12.00
2023-07-25T19:36:47.354Z,16.90
2023-07-25T19:41:51.610Z,14.07
2023-07-25T19:46:56.128Z,14.00
2023-07-25T19:51:59.461Z,18.08
2023-07-25T19:57:02.625Z,14.68
2023-07-25T20:02:05.144Z,15.50
2023-07-25T20:07:07.670Z,17.63
2023-07-25T20:12:10.745Z,14.73
2023-07-25T20:17:12.985Z,12.57
2023-07-25T20:22:15.234Z,12.75
2023-07-25T20:27:18.282Z,14.65
2023-07-25T20:32:20.776Z,11.80
2023-07-25T20:37:23.101Z,13.25
2023-07-25T20:42:25.457Z,15.85
2023-07-25T20:47:27.819Z,16.45
2023-07-25T20:52:30.157Z,13.85
2023-07-25T20:57:32.409Z,15.80
2023-07-25T21:02:34.711Z,14.40
2023-07-25T21:07:38.369Z,17.85
2023-07-25T21:12:40.753Z,16.00
2023-07-25T21:17:43.106Z,14.40
2023-07-25T21:22:45.352Z,15.20
2023-07-25T21:27:47.619Z,18.65
2023-07-25T21:32:49.909Z,16.30
2023-07-25T21:37:52.476Z,14.90
2023-07-25T21:42:54.730Z,14.90
2023-07-25T21:47:56.957Z,15.52
2023-07-25T21:52:59.210Z,14.57
2023-07-25T21:58:01.483Z,16.30
2023-07-25T22:03:03.856Z,18.35
2023-07-25T22:08:06.069Z,16.85
2023-07-25T22:13:08.905Z,18.08
2023-07-25T22:18:11.028Z,18.52
2023-07-25T22:23:13.216Z,16.90
2023-07-25T22:28:15.460Z,18.52
2023-07-25T22:33:17.647Z,17.63
2023-07-25T22:38:19.795Z,16.98
2023-07-25T22:43:22.032Z,16.50
2023-07-25T22:48:25.235Z,14.18
2023-07-25T22:53:27.301Z,14.60
2023-07-25T22:58:30.099Z,15.63
2023-07-25T23:03:36.131Z,13.27
2023-07-25T23:08:38.419Z,18.35
2023-07-25T23:13:40.573Z,13.75
2023-07-25T23:18:42.842Z,15.65
2023-07-25T23:23:45.019Z,13.95
2023-07-25T23:28:47.202Z,14.63
2023-07-25T23:33:49.407Z,13.70
2023-07-25T23:38:51.536Z,14.52
2023-07-25T23:43:53.589Z,12.98
2023-07-25T23:48:55.668Z,16.00
2023-07-25T23:53:58.286Z,11.95
2023-07-25T23:59:01.095Z,14.63
